createdAt,value
2022-08-07T00:01:43.798Z,87.53
2022-08-07T00:04:16.428Z,87.41
2022-08-07T00:07:01.413Z,87.53
2022-08-07T00:09:35.805Z,87.54
2022-08-07T00:12:05.462Z,87.54
2022-08-07T00:14:34.218Z,87.54
2022-08-07T00:17:06.618Z,87.53
2022-08-07T00:20:01.379Z,87.64
2022-08-07T00:22:35.212Z,87.51
2022-08-07T00:25:07.032Z,87.55
2022-08-07T00:27:52.357Z,87.62
2022-08-07T00:30:27.571Z,87.57
2022-08-07T00:32:58.777Z,87.59
2022-08-07T00:35:29.901Z,87.65
2022-08-07T00:38:02.339Z,87.48
2022-08-07T00:40:39.859Z,87.60
2022-08-07T00:43:59.520Z,87.36
2022-08-07T00:46:04.596Z,87.44
2022-08-07T00:48:37.082Z,87.35
2022-08-07T00:51:12.034Z,87.36
2022-08-07T00:53:50.678Z,87.22
2022-08-07T00:56:30.272Z,87.22
2022-08-07T00:59:03.592Z,86.96
2022-08-07T01:01:41.239Z,86.86
2022-08-07T01:04:24.582Z,86.75
2022-08-07T01:06:56.172Z,86.54
2022-08-07T01:10:03.903Z,86.40
2022-08-07T01:12:28.843Z,86.47
2022-08-07T01:15:01.715Z,86.48
2022-08-07T01:17:35.708Z,86.54
2022-08-07T01:20:17.271Z,86.38
2022-08-07T01:23:00.472Z,86.32
2022-08-07T01:25:55.573Z,86.09
2022-08-07T01:28:26.349Z,86.16
2022-08-07T01:31:00.137Z,86.64
2022-08-07T01:33:56.325Z,86.46
2022-08-07T01:36:33.886Z,86.24
2022-08-07T01:39:18.388Z,86.45
2022-08-07T01:42:07.481Z,86.23
2022-08-07T01:44:47.926Z,86.09
2022-08-07T01:48:19.503Z,86.30
2022-08-07T01:50:14.605Z,86.06
2022-08-07T01:52:49.738Z,85.90
2022-08-07T01:55:28.106Z,85.71
2022-08-07T01:58:06.337Z,85.58
2022-08-07T02:01:09.496Z,85.64
2022-08-07T02:03:48.856Z,85.47
2022-08-07T02:06:31.615Z,85.57
2022-08-07T02:09:08.917Z,85.28
2022-08-07T02:12:03.341Z,85.17
2022-08-07T02:14:40.799Z,85.29
2022-08-07T02:17:27.583Z,85.01
2022-08-07T02:20:04.819Z,84.64
2022-08-07T02:22:41.408Z,84.37
2022-08-07T02:25:17.462Z,84.47
2022-08-07T02:28:00.136Z,84.39
2022-08-07T02:30:32.179Z,84.29
2022-08-07T02:33:09.158Z,84.31
2022-08-07T02:36:29.081Z,84.13
2022-08-07T02:38:39.125Z,84.04
2022-08-07T02:41:21.814Z,83.98
2022-08-07T02:43:55.320Z,84.02
2022-08-07T02:46:32.487Z,83.99
2022-08-07T02:49:03.306Z,84.18
2022-08-07T02:51:49.980Z,84.16
2022-08-07T02:54:27.847Z,84.10
2022-08-07T02:57:03.633Z,83.92
2022-08-07T02:59:38.391Z,83.60
2022-08-07T03:02:11.581Z,83.50
2022-08-07T03:04:42.963Z,83.31
2022-08-07T03:07:18.056Z,83.11
2022-08-07T03:09:52.551Z,82.99
2022-08-07T03:12:31.057Z,82.89
2022-08-07T03:15:10.568Z,82.76
2022-08-07T03:17:53.471Z,82.57
2022-08-07T03:20:29.032Z,82.70
2022-08-07T03:23:04.492Z,82.45
2022-08-07T03:25:58.286Z,82.32
2022-08-07T03:28:37.486Z,82.53
2022-08-07T03:31:24.378Z,82.50
2022-08-07T03:34:01.105Z,82.79
2022-08-07T03:36:34.897Z,82.93
2022-08-07T03:39:11.518Z,82.92
2022-08-07T03:41:47.769Z,82.92
2022-08-07T03:44:21.789Z,82.98
2022-08-07T03:47:10.886Z,82.98
2022-08-07T03:49:41.762Z,82.97
2022-08-07T03:52:22.556Z,83.02
2022-08-07T03:54:57.351Z,83.12
2022-08-07T03:59:07.419Z,83.06
2022-08-07T04:00:33.856Z,83.19
2022-08-07T04:03:10.079Z,83.03
2022-08-07T04:05:45.702Z,83.03
2022-08-07T04:08:21.350Z,83.20
2022-08-07T04:12:25.415Z,83.21
2022-08-07T04:14:10.705Z,83.16
2022-08-07T04:16:38.410Z,83.01
2022-08-07T04:19:15.222Z,82.91
2022-08-07T04:22:05.369Z,82.98
2022-08-07T04:24:42.034Z,82.89
2022-08-07T04:27:20.390Z,82.88
2022-08-07T04:30:02.203Z,83.04
2022-08-07T04:32:58.417Z,82.64
2022-08-07T04:35:35.447Z,82.62
2022-08-07T04:38:13.130Z,82.25
2022-08-07T04:40:52.806Z,81.50
2022-08-07T04:44:12.082Z,81.53
2022-08-07T04:46:59.557Z,80.87
2022-08-07T04:49:42.121Z,80.77
2022-08-07T04:52:32.164Z,80.38
2022-08-07T04:55:15.203Z,80.24
2022-08-07T04:58:34.952Z,79.93
2022-08-07T05:01:20.631Z,79.81
2022-08-07T05:04:08.228Z,79.18
2022-08-07T05:06:53.626Z,79.14
2022-08-07T05:09:45.359Z,79.08
2022-08-07T05:12:27.141Z,78.86
2022-08-07T05:15:23.495Z,78.23
2022-08-07T05:18:08.567Z,78.15
2022-08-07T05:20:44.925Z,77.76
2022-08-07T05:23:20.460Z,77.83
2022-08-07T05:26:11.551Z,77.94
2022-08-07T05:28:50.118Z,77.76
2022-08-07T05:31:34.515Z,77.64
2022-08-07T05:34:10.941Z,77.67
2022-08-07T05:36:49.081Z,77.58
2022-08-07T05:40:05.003Z,76.54
2022-08-07T05:42:36.980Z,76.14
2022-08-07T05:45:26.288Z,76.90
2022-08-07T05:48:07.655Z,75.40
2022-08-07T05:50:44.546Z,73.87
2022-08-07T05:54:12.054Z,72.66
2022-08-07T05:56:09.527Z,71.96
2022-08-07T05:58:49.352Z,71.85
2022-08-07T06:01:27.563Z,69.97
2022-08-07T06:04:09.992Z,70.02
2022-08-07T06:06:46.111Z,70.25
2022-08-07T06:09:18.179Z,70.12
2022-08-07T06:11:50.737Z,70.35
2022-08-07T06:14:28.895Z,70.23
2022-08-07T06:17:08.919Z,70.30
2022-08-07T06:19:57.562Z,71.02
2022-08-07T06:22:39.065Z,71.30
2022-08-07T06:25:34.749Z,72.27
2022-08-07T06:28:06.638Z,71.31
2022-08-07T06:30:45.876Z,71.54
2022-08-07T06:33:22.534Z,71.51
2022-08-07T06:36:06.649Z,70.79
2022-08-07T06:38:59.475Z,70.91
2022-08-07T06:42:00.599Z,70.30
2022-08-07T06:45:13.009Z,69.75
2022-08-07T06:47:58.493Z,69.57
2022-08-07T06:50:33.603Z,69.55
2022-08-07T06:54:12.145Z,69.11
2022-08-07T06:56:02.119Z,69.32
2022-08-07T06:58:37.595Z,68.56
2022-08-07T07:01:16.642Z,69.23
2022-08-07T07:03:50.234Z,68.79
2022-08-07T07:06:28.190Z,68.65
2022-08-07T07:09:14.590Z,68.98
2022-08-07T07:12:07.404Z,69.06
2022-08-07T07:14:52.889Z,67.71
2022-08-07T07:17:39.090Z,67.23
2022-08-07T07:20:17.719Z,66.51
2022-08-07T07:24:08.641Z,66.21
2022-08-07T07:26:34.227Z,65.84
2022-08-07T07:28:48.344Z,65.96
2022-08-07T07:31:44.226Z,64.80
2022-08-07T07:34:30.704Z,64.53
2022-08-07T07:37:22.054Z,64.57
2022-08-07T07:40:01.644Z,64.94
2022-08-07T07:42:43.158Z,65.12
2022-08-07T07:45:22.786Z,64.44
2022-08-07T07:48:24.299Z,63.02
2022-08-07T07:51:08.109Z,63.18
2022-08-07T07:53:52.068Z,63.97
2022-08-07T07:56:29.996Z,63.37
2022-08-07T07:59:02.887Z,63.21
2022-08-07T08:02:04.673Z,63.16
2022-08-07T08:04:27.684Z,61.63
2022-08-07T08:07:02.636Z,62.65
2022-08-07T08:09:52.132Z,62.44
2022-08-07T08:12:52.024Z,62.15
2022-08-07T08:15:23.209Z,61.83
2022-08-07T08:17:57.097Z,62.25
2022-08-07T08:20:32.323Z,62.02
2022-08-07T08:23:20.628Z,61.90
2022-08-07T08:26:23.613Z,61.51
2022-08-07T08:28:59.329Z,60.44
2022-08-07T08:31:59.221Z,60.25
2022-08-07T08:34:35.538Z,60.41
2022-08-07T08:37:09.842Z,60.32
2022-08-07T08:39:58.705Z,61.26
2022-08-07T08:42:40.442Z,61.09
2022-08-07T08:45:20.865Z,60.76
2022-08-07T08:48:10.797Z,60.62
2022-08-07T08:50:51.596Z,60.42
2022-08-07T08:53:46.925Z,59.01
2022-08-07T08:56:24.763Z,59.73
2022-08-07T08:59:06.367Z,59.96
2022-08-07T09:01:51.146Z,59.39
2022-08-07T09:04:31.683Z,59.18
2022-08-07T09:07:12.835Z,58.97
2022-08-07T09:10:02.543Z,57.97
2022-08-07T09:12:54.966Z,58.24
2022-08-07T09:16:20.599Z,58.69
2022-08-07T09:19:52.829Z,58.56
2022-08-07T09:24:31.139Z,58.17
2022-08-07T09:25:27.211Z,57.51
2022-08-07T09:29:24.362Z,56.96
2022-08-07T09:31:08.490Z,57.22
2022-08-07T09:34:09.698Z,57.38
2022-08-07T09:36:49.689Z,57.83
2022-08-07T09:39:53.902Z,57.69
2022-08-07T09:42:53.702Z,56.61
2022-08-07T09:47:25.812Z,56.66
2022-08-07T09:50:02.566Z,56.63
2022-08-07T09:52:16.132Z,55.47
2022-08-07T09:54:50.684Z,56.19
2022-08-07T09:57:58.111Z,56.05
2022-08-07T10:00:33.188Z,56.82
2022-08-07T10:04:06.799Z,54.58
2022-08-07T10:07:03.480Z,54.77
2022-08-07T10:10:00.239Z,55.23
2022-08-07T10:14:01.451Z,54.94
2022-08-07T10:16:43.256Z,54.02
2022-08-07T10:19:45.414Z,54.18
2022-08-07T10:22:51.004Z,53.71
2022-08-07T10:25:43.248Z,54.67
2022-08-07T10:28:39.248Z,54.11
2022-08-07T10:31:49.552Z,55.08
2022-08-07T10:34:45.254Z,54.23
2022-08-07T10:38:00.596Z,53.13
2022-08-07T10:40:30.390Z,53.40
2022-08-07T10:43:11.393Z,51.96
2022-08-07T10:45:58.190Z,52.65
2022-08-07T10:48:41.732Z,52.00
2022-08-07T10:51:39.170Z,51.17
2022-08-07T10:54:19.210Z,51.28
2022-08-07T10:57:09.763Z,53.43
2022-08-07T11:00:05.449Z,53.62
2022-08-07T11:02:49.458Z,52.55
2022-08-07T11:05:49.233Z,52.09
2022-08-07T11:08:41.237Z,52.64
2022-08-07T11:11:16.631Z,52.42
2022-08-07T11:14:44.640Z,52.91
2022-08-07T11:17:01.783Z,53.12
2022-08-07T11:19:40.218Z,52.59
2022-08-07T11:22:26.573Z,52.27
2022-08-07T11:25:12.920Z,52.02
2022-08-07T11:28:01.391Z,51.91
2022-08-07T11:30:48.085Z,52.12
2022-08-07T11:33:54.245Z,52.52
2022-08-07T11:36:40.115Z,52.45
2022-08-07T11:39:25.252Z,53.37
2022-08-07T11:42:19.582Z,52.69
2022-08-07T11:45:00.021Z,53.43
2022-08-07T11:47:56.693Z,53.41
2022-08-07T11:50:58.373Z,53.39
2022-08-07T11:54:00.920Z,51.82
2022-08-07T11:56:53.041Z,50.96
2022-08-07T12:00:11.298Z,50.53
2022-08-07T12:03:44.893Z,51.05
2022-08-07T12:06:51.666Z,51.92
2022-08-07T12:09:37.256Z,53.48
2022-08-07T12:12:12.274Z,54.20
2022-08-07T12:14:55.360Z,55.07
2022-08-07T12:17:55.876Z,55.27
2022-08-07T12:20:38.044Z,55.61
2022-08-07T12:24:05.434Z,55.49
2022-08-07T12:26:46.890Z,55.40
2022-08-07T12:29:38.716Z,56.11
2022-08-07T12:32:22.066Z,56.65
2022-08-07T12:34:56.099Z,56.41
2022-08-07T12:37:28.311Z,56.66
2022-08-07T12:40:46.630Z,57.73
2022-08-07T12:44:03.903Z,58.59
2022-08-07T12:46:26.378Z,58.89
2022-08-07T12:49:39.532Z,59.70
2022-08-07T12:52:17.131Z,60.06
2022-08-07T12:55:09.706Z,59.68
2022-08-07T12:58:02.041Z,59.68
2022-08-07T13:00:50.107Z,58.52
2022-08-07T13:03:59.246Z,58.18
2022-08-07T13:07:01.921Z,57.40
2022-08-07T13:10:19.499Z,56.70
2022-08-07T13:13:10.899Z,55.91
2022-08-07T13:15:59.276Z,55.63
2022-08-07T13:18:44.771Z,55.51
2022-08-07T13:21:37.238Z,55.75
2022-08-07T13:24:25.580Z,56.24
2022-08-07T13:27:10.532Z,55.97
2022-08-07T13:29:53.765Z,56.26
2022-08-07T13:32:35.185Z,56.41
2022-08-07T13:35:21.144Z,56.84
2022-08-07T13:38:03.762Z,57.03
2022-08-07T13:40:58.552Z,55.61
2022-08-07T13:43:34.231Z,54.25
2022-08-07T13:46:12.897Z,54.40
2022-08-07T13:48:58.536Z,53.91
2022-08-07T13:52:23.096Z,52.07
2022-08-07T13:54:29.445Z,52.11
2022-08-07T13:57:14.587Z,52.23
2022-08-07T13:59:57.874Z,50.56
2022-08-07T14:02:39.644Z,49.53
2022-08-07T14:05:25.152Z,50.35
2022-08-07T14:08:10.372Z,48.94
2022-08-07T14:10:43.605Z,47.81
2022-08-07T14:13:22.251Z,46.51
2022-08-07T14:16:06.771Z,46.84
2022-08-07T14:18:57.170Z,47.99
2022-08-07T14:22:03.987Z,47.64
2022-08-07T14:24:28.633Z,48.54
2022-08-07T14:27:16.137Z,48.50
2022-08-07T14:30:11.705Z,47.83
2022-08-07T14:32:48.794Z,47.83
2022-08-07T14:35:43.374Z,47.86
2022-08-07T14:38:26.862Z,46.65
2022-08-07T14:41:06.474Z,46.98
2022-08-07T14:43:58.663Z,45.47
2022-08-07T14:46:51.930Z,45.47
2022-08-07T14:49:56.837Z,45.24
2022-08-07T14:52:34.021Z,45.72
2022-08-07T14:55:05.326Z,45.08
2022-08-07T14:57:58.350Z,45.12
2022-08-07T15:00:42.041Z,45.12
2022-08-07T15:03:18.935Z,44.90
2022-08-07T15:05:54.661Z,44.06
2022-08-07T15:08:50.069Z,43.77
2022-08-07T15:13:05.886Z,43.34
2022-08-07T15:14:30.391Z,43.52
2022-08-07T15:17:05.515Z,43.92
2022-08-07T15:20:30.599Z,42.66
2022-08-07T15:22:55.047Z,42.43
2022-08-07T15:28:36.192Z,42.05
2022-08-07T15:31:57.691Z,41.28
2022-08-07T15:34:12.433Z,41.77
2022-08-07T15:37:02.676Z,41.59
2022-08-07T15:39:56.619Z,41.23
2022-08-07T15:42:56.059Z,41.67
2022-08-07T15:45:55.509Z,41.02
2022-08-07T15:48:33.556Z,41.60
2022-08-07T15:51:12.010Z,41.88
2022-08-07T15:53:53.002Z,42.01
2022-08-07T15:56:35.343Z,41.82
2022-08-07T15:59:16.625Z,42.12
2022-08-07T16:02:01.651Z,41.97
2022-08-07T16:04:37.842Z,41.88
2022-08-07T16:08:30.285Z,41.30
2022-08-07T16:10:17.069Z,41.25
2022-08-07T16:13:59.300Z,41.10
2022-08-07T16:16:48.850Z,41.53
2022-08-07T16:20:34.097Z,41.35
2022-08-07T16:23:53.809Z,41.12
2022-08-07T16:26:59.697Z,41.38
2022-08-07T16:30:10.182Z,41.21
2022-08-07T16:32:54.585Z,41.63
2022-08-07T16:35:51.972Z,40.85
2022-08-07T16:39:01.153Z,40.33
2022-08-07T16:41:56.165Z,39.99
2022-08-07T16:45:14.750Z,40.44
2022-08-07T16:49:10.479Z,41.37
2022-08-07T16:52:06.521Z,41.18
2022-08-07T16:55:08.374Z,41.27
2022-08-07T16:58:08.023Z,40.36
2022-08-07T17:00:43.655Z,40.69
2022-08-07T17:03:57.973Z,40.49
2022-08-07T17:06:42.535Z,40.60
2022-08-07T17:10:06.347Z,41.47
2022-08-07T17:12:44.729Z,42.36
2022-08-07T17:15:22.745Z,43.67
2022-08-07T17:18:25.960Z,44.39
2022-08-07T17:20:56.625Z,45.31
2022-08-07T17:23:44.494Z,46.40
2022-08-07T17:26:30.609Z,46.81
2022-08-07T17:30:12.608Z,47.90
2022-08-07T17:32:30.047Z,47.71
2022-08-07T17:35:49.963Z,47.85
2022-08-07T17:38:34.436Z,49.13
2022-08-07T17:42:01.211Z,49.37
2022-08-07T17:44:14.219Z,49.39
2022-08-07T17:47:00.220Z,49.89
2022-08-07T17:49:44.431Z,50.55
2022-08-07T17:52:30.635Z,51.04
2022-08-07T17:55:12.557Z,51.29
2022-08-07T17:58:02.503Z,51.56
2022-08-07T18:00:48.770Z,52.22
2022-08-07T18:04:04.289Z,52.44
2022-08-07T18:06:38.537Z,52.90
2022-08-07T18:09:15.977Z,53.50
2022-08-07T18:12:16.092Z,54.05
2022-08-07T18:14:51.533Z,54.07
2022-08-07T18:18:46.372Z,54.29
2022-08-07T18:21:03.490Z,54.97
2022-08-07T18:23:50.577Z,55.05
2022-08-07T18:26:58.382Z,55.43
2022-08-07T18:30:06.592Z,55.82
2022-08-07T18:33:10.511Z,56.59
2022-08-07T18:36:03.490Z,56.95
2022-08-07T18:40:09.006Z,57.16
2022-08-07T18:42:13.546Z,57.73
2022-08-07T18:45:44.993Z,57.38
2022-08-07T18:48:01.392Z,58.26
2022-08-07T18:50:55.906Z,58.63
2022-08-07T18:53:55.897Z,58.48
2022-08-07T18:57:25.786Z,58.83
2022-08-07T19:00:04.497Z,59.39
2022-08-07T19:03:00.605Z,60.36
2022-08-07T19:06:02.619Z,60.17
2022-08-07T19:08:39.377Z,60.82
2022-08-07T19:11:35.946Z,61.09
2022-08-07T19:14:17.021Z,61.09
2022-08-07T19:17:04.751Z,61.68
2022-08-07T19:19:54.747Z,61.92
2022-08-07T19:22:34.251Z,62.89
2022-08-07T19:26:24.612Z,63.42
2022-08-07T19:28:58.376Z,63.57
2022-08-07T19:31:43.721Z,63.98
2022-08-07T19:34:04.093Z,64.12
2022-08-07T19:36:44.513Z,64.59
2022-08-07T19:39:56.100Z,64.86
2022-08-07T19:42:40.505Z,65.07
2022-08-07T19:46:05.056Z,65.32
2022-08-07T19:48:18.672Z,65.58
2022-08-07T19:50:57.558Z,65.86
2022-08-07T19:54:35.001Z,66.47
2022-08-07T19:56:58.629Z,66.92
2022-08-07T19:59:18.816Z,67.07
2022-08-07T20:01:56.128Z,67.21
2022-08-07T20:04:37.551Z,67.90
2022-08-07T20:07:14.072Z,68.15
2022-08-07T20:10:35.527Z,67.85
2022-08-07T20:12:53.313Z,68.61
2022-08-07T20:15:32.979Z,69.19
2022-08-07T20:18:18.073Z,69.00
2022-08-07T20:20:51.924Z,70.65
2022-08-07T20:23:40.919Z,70.76
2022-08-07T20:26:15.298Z,70.81
2022-08-07T20:29:10.732Z,71.57
2022-08-07T20:31:54.388Z,71.78
2022-08-07T20:34:49.459Z,71.48
2022-08-07T20:37:25.536Z,71.95
2022-08-07T20:40:02.248Z,72.26
2022-08-07T20:42:39.173Z,72.04
2022-08-07T20:45:33.538Z,72.00
2022-08-07T20:48:28.455Z,71.82
2022-08-07T20:51:03.353Z,71.94
2022-08-07T20:54:03.491Z,72.55
2022-08-07T20:56:34.917Z,72.28
2022-08-07T21:00:04.484Z,73.10
2022-08-07T21:01:58.525Z,72.67
2022-08-07T21:04:32.859Z,72.83
2022-08-07T21:07:03.925Z,73.51
2022-08-07T21:09:53.082Z,74.13
2022-08-07T21:12:31.720Z,73.87
2022-08-07T21:15:06.687Z,74.37
2022-08-07T21:18:17.259Z,74.53
2022-08-07T21:20:33.498Z,74.86
2022-08-07T21:23:09.587Z,74.52
2022-08-07T21:25:58.543Z,74.75
2022-08-07T21:28:50.125Z,74.88
2022-08-07T21:32:41.583Z,75.35
2022-08-07T21:34:46.106Z,75.43
2022-08-07T21:37:26.684Z,75.78
2022-08-07T21:40:26.454Z,75.52
2022-08-07T21:43:06.136Z,75.55
2022-08-07T21:46:07.959Z,75.75
2022-08-07T21:48:48.124Z,75.90
2022-08-07T21:51:50.960Z,75.96
2022-08-07T21:54:35.809Z,76.14
2022-08-07T21:57:31.175Z,76.30
2022-08-07T22:00:23.246Z,75.88
2022-08-07T22:03:07.735Z,76.09
2022-08-07T22:05:49.888Z,76.03
2022-08-07T22:08:24.747Z,76.71
2022-08-07T22:11:01.364Z,76.56
2022-08-07T22:13:52.593Z,76.56
2022-08-07T22:16:42.654Z,76.50
2022-08-07T22:19:29.752Z,76.78
2022-08-07T22:22:17.718Z,76.79
2022-08-07T22:25:07.550Z,77.14
2022-08-07T22:28:08.002Z,77.13
2022-08-07T22:30:54.073Z,77.57
2022-08-07T22:33:53.073Z,77.54
2022-08-07T22:36:39.889Z,77.65
2022-08-07T22:39:23.536Z,78.03
2022-08-07T22:42:19.080Z,78.02
2022-08-07T22:44:57.976Z,78.50
2022-08-07T22:48:13.978Z,78.90
2022-08-07T22:51:36.441Z,79.25
2022-08-07T22:54:31.773Z,79.40
2022-08-07T22:57:19.310Z,79.42
2022-08-07T23:00:12.449Z,79.82
2022-08-07T23:03:03.579Z,79.69
2022-08-07T23:06:15.736Z,79.62
2022-08-07T23:10:04.644Z,79.38
2022-08-07T23:12:34.602Z,79.16
2022-08-07T23:16:06.913Z,79.26
2022-08-07T23:18:34.636Z,79.23
2022-08-07T23:21:30.302Z,79.04
2022-08-07T23:24:45.681Z,78.92
2022-08-07T23:28:22.372Z,78.71
2022-08-07T23:31:07.177Z,78.70
2022-08-07T23:34:20.916Z,78.53
2022-08-07T23:37:22.792Z,78.83
2022-08-07T23:40:15.027Z,77.49
2022-08-07T23:43:16.651Z,77.87
2022-08-07T23:46:03.795Z,77.66
2022-08-07T23:49:24.127Z,76.14
2022-08-07T23:53:11.965Z,76.24
2022-08-07T23:55:53.419Z,76.41
2022-08-07T23:58:31.826Z,76.63
